Time,TemperatureF,DewpointF,PressureIn,WindDirection,WindDirectionDegrees,WindSpeedMPH,WindSpeedGustMPH,Humidity,HourlyPrecipIn,Conditions,Clouds,dailyrainin,SolarRadiationWatts/m^2,SoftwareType,DateUTC
2013-07-21 00:01:00,65.0,34.0,-100.00,SSW,209,4.0,9.0,32,0.00,,,0.00,0.000000,,2013-07-21 07:01:00,
2013-07-21 00:11:00,65.0,34.0,-100.00,SSW,209,4.0,9.0,32,0.00,,,0.00,0.000000,,2013-07-21 07:11:00,
2013-07-21 00:22:00,65.0,34.0,-100.00,SSW,209,4.0,9.0,32,0.00,,,0.00,0.000000,,2013-07-21 07:22:00,
2013-07-21 00:31:00,63.0,36.0,-100.00,SSW,199,2.0,6.0,36,0.00,,,0.00,0.000000,,2013-07-21 07:31:00,
2013-07-21 00:53:00,63.0,36.0,-100.00,SSW,199,2.0,6.0,36,0.00,,,0.00,0.000000,,2013-07-21 07:53:00,
2013-07-21 01:01:00,63.0,36.0,-100.00,SSW,199,2.0,6.0,36,0.00,,,0.00,0.000000,,2013-07-21 08:01:00,
2013-07-21 01:11:00,63.0,36.0,-100.00,SSW,199,2.0,6.0,36,0.00,,,0.00,0.000000,,2013-07-21 08:11:00,
2013-07-21 01:22:00,63.0,36.0,-100.00,SSW,199,2.0,6.0,36,0.00,,,0.00,0.000000,,2013-07-21 08:22:00,
2013-07-21 01:31:00,61.0,32.0,-100.00,South,189,3.0,4.0,34,0.00,,,0.00,0.000000,,2013-07-21 08:31:00,
2013-07-21 01:52:00,61.0,32.0,-100.00,South,189,3.0,4.0,34,0.00,,,0.00,0.000000,,2013-07-21 08:52:00,
2013-07-21 02:02:00,61.0,32.0,-100.00,South,189,3.0,4.0,34,0.00,,,0.00,0.000000,,2013-07-21 09:02:00,
2013-07-21 02:12:00,61.0,32.0,-100.00,South,189,3.0,4.0,34,0.00,,,0.00,0.000000,,2013-07-21 09:12:00,
2013-07-21 02:22:00,61.0,32.0,-100.00,South,189,3.0,4.0,34,0.00,,,0.00,0.000000,,2013-07-21 09:22:00,
2013-07-21 02:31:00,61.0,35.0,-100.00,South,190,3.0,5.0,38,0.00,,,0.00,0.000000,,2013-07-21 09:31:00,
2013-07-21 02:52:00,61.0,35.0,-100.00,South,190,3.0,5.0,38,0.00,,,0.00,0.000000,,2013-07-21 09:52:00,
2013-07-21 03:01:00,61.0,35.0,-100.00,South,190,3.0,5.0,38,0.00,,,0.00,0.000000,,2013-07-21 10:01:00,
2013-07-21 03:22:00,61.0,35.0,-100.00,South,190,3.0,5.0,38,0.00,,,0.00,0.000000,,2013-07-21 10:22:00,
2013-07-21 03:31:00,59.0,33.0,-100.00,SSW,193,3.0,5.0,38,-99.99,,,0.00,0.000000,,2013-07-21 10:31:00,
2013-07-21 04:11:00,59.0,33.0,-100.00,SSW,193,3.0,5.0,38,-99.99,,,0.00,0.000000,,2013-07-21 11:11:00,
2013-07-21 04:22:00,59.0,33.0,-100.00,SSW,193,3.0,5.0,38,-99.99,,,0.00,0.000000,,2013-07-21 11:22:00,
2013-07-21 04:31:00,58.0,36.0,-100.00,SSW,204,3.0,5.0,44,0.00,,,0.00,0.000000,,2013-07-21 11:31:00,
2013-07-21 04:52:00,58.0,36.0,-100.00,SSW,204,3.0,5.0,44,0.00,,,0.00,0.000000,,2013-07-21 11:52:00,
2013-07-21 05:11:00,58.0,36.0,-100.00,SSW,204,3.0,5.0,44,0.00,,,0.00,0.000000,,2013-07-21 12:11:00,
2013-07-21 05:22:00,58.0,36.0,-100.00,SSW,204,3.0,5.0,44,0.00,,,0.00,0.000000,,2013-07-21 12:22:00,
2013-07-21 05:31:00,56.0,37.0,-100.00,SSW,197,3.0,6.0,49,0.00,,,0.00,0.000000,,2013-07-21 12:31:00,
2013-07-21 05:53:00,56.0,37.0,-100.00,SSW,197,3.0,6.0,49,0.00,,,0.00,0.000000,,2013-07-21 12:53:00,
2013-07-21 06:01:00,56.0,37.0,-100.00,SSW,197,3.0,6.0,49,0.00,,,0.00,0.000000,,2013-07-21 13:01:00,
2013-07-21 06:12:00,56.0,37.0,-100.00,SSW,197,3.0,6.0,49,0.00,,,0.00,0.000000,,2013-07-21 13:12:00,
2013-07-21 06:22:00,56.0,37.0,-100.00,SSW,197,3.0,6.0,49,0.00,,,0.00,0.000000,,2013-07-21 13:22:00,
2013-07-21 06:31:00,56.0,38.0,-100.00,SSW,194,4.0,5.0,50,0.00,,,0.00,11.000000,,2013-07-21 13:31:00,
2013-07-21 07:22:00,56.0,38.0,-100.00,SSW,194,4.0,5.0,50,0.00,,,0.00,11.000000,,2013-07-21 14:22:00,
2013-07-21 07:31:00,65.0,37.0,-100.00,SSW,193,3.0,5.0,35,0.00,,,0.00,143.000000,,2013-07-21 14:31:00,
2013-07-21 08:31:00,70.0,38.0,-100.00,South,190,3.0,6.0,31,-99.99,,,0.00,384.000000,,2013-07-21 15:31:00,
2013-07-21 09:22:00,70.0,38.0,-100.00,South,190,3.0,6.0,31,-99.99,,,0.00,384.000000,,2013-07-21 16:22:00,
2013-07-21 09:31:00,75.0,30.0,-100.00,SSW,211,4.0,8.0,19,0.00,,,0.00,573.000000,,2013-07-21 16:31:00,
2013-07-21 10:02:00,75.0,30.0,-100.00,SSW,211,4.0,8.0,19,0.00,,,0.00,573.000000,,2013-07-21 17:02:00,
2013-07-21 10:11:00,75.0,30.0,-100.00,SSW,211,4.0,8.0,19,0.00,,,0.00,573.000000,,2013-07-21 17:11:00,
2013-07-21 10:22:00,75.0,30.0,-100.00,SSW,211,4.0,8.0,19,0.00,,,0.00,573.000000,,2013-07-21 17:22:00,
2013-07-21 11:31:00,85.0,27.0,-100.00,South,173,5.0,9.0,12,0.00,,,0.00,868.000000,,2013-07-21 18:31:00,
2013-07-21 12:01:00,85.0,27.0,-100.00,South,173,5.0,9.0,12,0.00,,,0.00,868.000000,,2013-07-21 19:01:00,
2013-07-21 12:11:00,85.0,27.0,-100.00,South,173,5.0,9.0,12,0.00,,,0.00,868.000000,,2013-07-21 19:11:00,
2013-07-21 12:22:00,85.0,27.0,-100.00,South,173,5.0,9.0,12,0.00,,,0.00,868.000000,,2013-07-21 19:22:00,
2013-07-21 12:31:00,89.0,23.0,-100.00,SSE,156,5.0,11.0,9,0.00,,,0.00,951.000000,,2013-07-21 19:31:00,
2013-07-21 13:01:00,89.0,23.0,-100.00,SSE,156,5.0,11.0,9,0.00,,,0.00,951.000000,,2013-07-21 20:01:00,
2013-07-21 13:11:00,89.0,23.0,-100.00,SSE,156,5.0,11.0,9,0.00,,,0.00,951.000000,,2013-07-21 20:11:00,
2013-07-21 13:22:00,89.0,23.0,-100.00,SSE,156,5.0,11.0,9,0.00,,,0.00,951.000000,,2013-07-21 20:22:00,
2013-07-21 13:31:00,90.0,24.0,-100.00,SSE,156,5.0,12.0,9,0.00,,,0.00,980.000000,,2013-07-21 20:31:00,
2013-07-21 13:52:00,90.0,24.0,-100.00,SSE,156,5.0,12.0,9,0.00,,,0.00,980.000000,,2013-07-21 20:52:00,
2013-07-21 14:01:00,90.0,24.0,-100.00,SSE,156,5.0,12.0,9,0.00,,,0.00,980.000000,,2013-07-21 21:01:00,
2013-07-21 14:11:00,90.0,24.0,-100.00,SSE,156,5.0,12.0,9,0.00,,,0.00,980.000000,,2013-07-21 21:11:00,
2013-07-21 14:22:00,90.0,24.0,-100.00,SSE,156,5.0,12.0,9,0.00,,,0.00,980.000000,,2013-07-21 21:22:00,
2013-07-21 14:31:00,92.0,22.0,-100.00,SW,228,6.0,11.0,8,0.00,,,0.00,967.000000,,2013-07-21 21:31:00,
2013-07-21 14:52:00,92.0,22.0,-100.00,SW,228,6.0,11.0,8,0.00,,,0.00,967.000000,,2013-07-21 21:52:00,
2013-07-21 15:11:00,92.0,22.0,-100.00,SW,228,6.0,11.0,8,0.00,,,0.00,967.000000,,2013-07-21 22:11:00,
2013-07-21 15:22:00,92.0,22.0,-100.00,SW,228,6.0,11.0,8,0.00,,,0.00,967.000000,,2013-07-21 22:22:00,
2013-07-21 19:22:00,87.0,34.0,-100.00,SSW,196,6.0,12.0,15,0.00,,,0.00,419.000000,,2013-07-22 02:22:00,
2013-07-21 19:31:00,82.0,37.0,-100.00,South,191,6.0,11.0,20,0.00,,,0.00,181.000000,,2013-07-22 02:31:00,
2013-07-21 19:52:00,82.0,37.0,-100.00,South,191,6.0,11.0,20,0.00,,,0.00,181.000000,,2013-07-22 02:52:00,
2013-07-21 20:01:00,82.0,37.0,-100.00,South,191,6.0,11.0,20,0.00,,,0.00,181.000000,,2013-07-22 03:01:00,
2013-07-21 20:11:00,82.0,37.0,-100.00,South,191,6.0,11.0,20,0.00,,,0.00,181.000000,,2013-07-22 03:11:00,
2013-07-21 20:22:00,82.0,37.0,-100.00,South,191,6.0,11.0,20,0.00,,,0.00,181.000000,,2013-07-22 03:22:00,
2013-07-21 20:31:00,75.0,41.0,-100.00,South,186,4.0,9.0,30,-99.99,,,0.00,16.000000,,2013-07-22 03:31:00,
2013-07-21 20:53:00,75.0,41.0,-100.00,South,186,4.0,9.0,30,-99.99,,,0.00,16.000000,,2013-07-22 03:53:00,
2013-07-21 21:01:00,75.0,41.0,-100.00,South,186,4.0,9.0,30,-99.99,,,0.00,16.000000,,2013-07-22 04:01:00,
2013-07-21 21:12:00,75.0,41.0,-100.00,South,186,4.0,9.0,30,-99.99,,,0.00,16.000000,,2013-07-22 04:12:00,
2013-07-21 21:22:00,75.0,41.0,-100.00,South,186,4.0,9.0,30,-99.99,,,0.00,16.000000,,2013-07-22 04:22:00,
2013-07-21 21:31:00,69.0,42.0,-100.00,WSW,243,2.0,6.0,38,0.00,,,0.00,2.000000,,2013-07-22 04:31:00,
2013-07-21 22:02:00,69.0,42.0,-100.00,WSW,243,2.0,6.0,38,0.00,,,0.00,2.000000,,2013-07-22 05:02:00,
2013-07-21 22:11:00,69.0,42.0,-100.00,WSW,243,2.0,6.0,38,0.00,,,0.00,2.000000,,2013-07-22 05:11:00,
2013-07-21 22:22:00,69.0,42.0,-100.00,WSW,243,2.0,6.0,38,0.00,,,0.00,2.000000,,2013-07-22 05:22:00,
2013-07-21 22:31:00,67.0,42.0,-100.00,SSW,200,3.0,7.0,40,0.00,,,0.00,0.000000,,2013-07-22 05:31:00,
2013-07-21 22:52:00,67.0,42.0,-100.00,SSW,200,3.0,7.0,40,0.00,,,0.00,0.000000,,2013-07-22 05:52:00,
2013-07-21 23:01:00,67.0,42.0,-100.00,SSW,200,3.0,7.0,40,0.00,,,0.00,0.000000,,2013-07-22 06:01:00,
2013-07-21 23:11:00,67.0,42.0,-100.00,SSW,200,3.0,7.0,40,0.00,,,0.00,0.000000,,2013-07-22 06:11:00,
2013-07-21 23:22:00,67.0,42.0,-100.00,SSW,200,3.0,7.0,40,0.00,,,0.00,0.000000,,2013-07-22 06:22:00,
2013-07-21 23:31:00,64.0,43.0,-100.00,SW,216,3.0,6.0,46,0.00,,,0.00,0.000000,,2013-07-22 06:31:00,
2013-07-21 23:52:00,64.0,43.0,-100.00,SW,216,3.0,6.0,46,0.00,,,0.00,0.000000,,2013-07-22 06:52:00,